Time;durP1;ratioP1;P1;durP2;ratioP2;P2;SDS_P1;SDS_P2;PMS_P1;PMS_P2;Temp;Humidity;BMP_temperature;BMP_pressure;BME280_temperature;BME280_humidity;BME280_pressure;Samples;Min_cycle;Max_cycle;Signal;HPM_P1;HPM_P2
2022/10/25 00:02:22;;;;;;;20.65;12.43;;;12.40;99.90;;;;;;5074151;28;20048;-69
2022/10/25 00:04:47;;;;;;;;;;;12.40;99.90;;;;;;5072426;28;20064;-68
2022/10/25 00:07:13;;;;;;;22.05;12.50;;;12.40;99.90;;;;;;5106183;28;20334;-68
2022/10/25 00:09:39;;;;;;;21.45;13.07;;;12.40;99.90;;;;;;5074357;28;20074;-68
2022/10/25 00:12:06;;;;;;;20.17;12.05;;;12.40;99.90;;;;;;5073927;28;20085;-68
2022/10/25 00:14:31;;;;;;;23.33;12.70;;;12.40;99.90;;;;;;5073679;28;20040;-68
2022/10/25 00:16:57;;;;;;;18.90;12.25;;;12.30;99.90;;;;;;5072386;28;20036;-68
2022/10/25 00:19:23;;;;;;;21.92;13.38;;;12.30;99.90;;;;;;5073061;28;20067;-69
2022/10/25 00:21:48;;;;;;;22.67;12.80;;;12.30;99.90;;;;;;5072980;28;20035;-70
2022/10/25 00:24:14;;;;;;;18.50;12.15;;;12.30;99.90;;;;;;5074730;28;20036;-69
2022/10/25 00:26:40;;;;;;;18.15;11.63;;;12.30;99.90;;;;;;5072912;28;20046;-69
2022/10/25 00:29:10;;;;;;;17.85;11.85;;;12.30;99.90;;;;;;5056572;28;20052;-69
2022/10/25 00:31:37;;;;;;;20.90;12.07;;;12.20;99.90;;;;;;5056775;28;20064;-67
2022/10/25 00:34:03;;;;;;;18.45;11.38;;;12.20;99.90;;;;;;5072510;28;20445;-70
2022/10/25 00:36:29;;;;;;;18.98;11.00;;;12.20;99.90;;;;;;5073944;28;20028;-68
2022/10/25 00:38:56;;;;;;;18.40;10.65;;;12.20;99.90;;;;;;5071161;28;20040;-68
2022/10/25 00:41:26;;;;;;;15.95;10.70;;;12.20;99.90;;;;;;5072699;28;20037;-68
2022/10/25 00:43:54;;;;;;;19.38;10.90;;;12.20;99.90;;;;;;5054950;28;20056;-69
2022/10/25 00:46:19;;;;;;;16.58;10.00;;;12.10;99.90;;;;;;5071385;28;20044;-69
2022/10/25 00:49:03;;;;;;;19.52;10.45;;;12.10;99.90;;;;;;5086103;28;20052;-67
2022/10/25 00:51:34;;;;;;;16.83;9.90;;;12.10;99.90;;;;;;5090716;28;20476;-68
2022/10/25 00:54:00;;;;;;;17.27;9.43;;;12.10;99.90;;;;;;5089564;28;20040;-68
2022/10/25 00:56:30;;;;;;;20.33;9.98;;;12.10;99.90;;;;;;5072549;28;20036;-69
2022/10/25 00:59:01;;;;;;;17.55;9.73;;;12.10;99.90;;;;;;5091609;28;20051;-67
2022/10/25 01:01:28;;;;;;;16.02;9.27;;;12.20;99.90;;;;;;5071619;28;20066;-69
2022/10/25 01:03:56;;;;;;;14.40;9.55;;;12.20;99.90;;;;;;5089502;28;20052;-68
2022/10/25 01:06:30;;;;;;;15.85;9.75;;;12.30;99.90;;;;;;5090090;28;20044;-70
2022/10/25 01:08:56;;;;;;;16.27;10.27;;;12.30;99.90;;;;;;5088422;28;20046;-69
2022/10/25 01:11:23;;;;;;;15.75;9.25;;;12.40;99.90;;;;;;5090669;28;20036;-68
2022/10/25 01:13:49;;;;;;;16.63;8.80;;;12.40;99.90;;;;;;5089982;28;20036;-68
2022/10/25 01:16:41;;;;;;;16.58;9.55;;;12.40;99.90;;;;;;5087006;28;20115;-69
2022/10/25 01:19:34;;;;;;;15.18;8.93;;;12.50;99.90;;;;;;5087539;28;20486;-69
2022/10/25 01:22:05;;;;;;;14.85;8.55;;;12.50;99.90;;;;;;5089085;28;20107;-69
2022/10/25 01:24:56;;;;;;;17.98;9.00;;;12.50;99.90;;;;;;5089711;28;20051;-69
2022/10/25 01:27:31;;;;;;;17.90;8.05;;;12.60;99.90;;;;;;5071448;28;20039;-68
2022/10/25 01:30:09;;;;;;;13.52;8.30;;;12.60;99.90;;;;;;5072469;28;20044;-68
2022/10/25 01:32:49;;;;;;;19.10;8.65;;;12.60;99.90;;;;;;5089452;28;20123;-68
2022/10/25 01:35:30;;;;;;;13.70;8.02;;;12.60;99.90;;;;;;5088753;28;20115;-67
2022/10/25 01:38:15;;;;;;;16.33;8.68;;;12.70;99.90;;;;;;5088199;28;20046;-69
2022/10/25 01:40:59;;;;;;;13.00;7.85;;;12.70;99.90;;;;;;5087899;28;20383;-69
2022/10/25 01:43:24;;;;;;;15.63;8.52;;;12.70;99.90;;;;;;5069018;28;20107;-69
2022/10/25 01:46:20;;;;;;;18.92;8.48;;;12.70;99.90;;;;;;5089541;28;20110;-69
2022/10/25 01:48:56;;;;;;;14.95;8.15;;;12.70;99.90;;;;;;5069653;28;20067;-69
2022/10/25 01:51:25;;;;;;;14.77;8.23;;;12.70;99.90;;;;;;5085697;28;20040;-68
2022/10/25 01:53:51;;;;;;;17.55;9.18;;;12.70;99.90;;;;;;5088939;28;20043;-68
2022/10/25 01:56:35;;;;;;;16.02;8.18;;;12.70;99.90;;;;;;5086908;28;20040;-69
2022/10/25 01:59:29;;;;;;;16.67;8.32;;;12.70;99.90;;;;;;5073768;28;20028;-68
2022/10/25 02:02:03;;;;;;;13.70;8.27;;;12.70;99.90;;;;;;5086134;28;20036;-69
2022/10/25 02:05:15;;;;;;;17.40;8.40;;;12.80;99.90;;;;;;5066698;28;20075;-71
2022/10/25 02:07:59;;;;;;;17.73;8.40;;;12.80;99.90;;;;;;5089384;28;20502;-69
2022/10/25 02:10:39;;;;;;;19.27;8.60;;;12.80;99.90;;;;;;5067550;28;20036;-68
2022/10/25 02:13:36;;;;;;;13.27;8.73;;;12.80;99.90;;;;;;5084952;28;20056;-68
2022/10/25 02:16:10;;;;;;;17.95;9.57;;;12.80;99.90;;;;;;5085860;28;20539;-69
2022/10/25 02:18:40;;;;;;;16.95;8.88;;;12.80;99.90;;;;;;5090158;28;20390;-70
2022/10/25 02:21:08;;;;;;;21.35;9.30;;;12.90;99.90;;;;;;5089731;28;20111;-69
2022/10/25 02:23:35;;;;;;;21.85;9.30;;;12.90;99.90;;;;;;5090010;28;20043;-70
2022/10/25 02:26:03;;;;;;;17.35;9.38;;;12.90;99.90;;;;;;5088539;28;20075;-69
2022/10/25 02:28:31;;;;;;;18.60;9.20;;;12.90;99.90;;;;;;5089951;28;20040;-69
2022/10/25 02:30:58;;;;;;;19.80;10.93;;;12.90;99.90;;;;;;5089485;28;20478;-68
2022/10/25 02:33:24;;;;;;;14.00;9.15;;;12.90;99.90;;;;;;5120399;28;20150;-70
2022/10/25 02:36:12;;;;;;;18.85;8.75;;;13.00;99.90;;;;;;5088690;28;20103;-69
2022/10/25 02:38:38;;;;;;;14.30;9.07;;;13.00;99.90;;;;;;5088554;28;20542;-70
2022/10/25 02:41:04;;;;;;;16.70;9.10;;;12.90;99.90;;;;;;5087694;28;20479;-68
2022/10/25 02:43:31;;;;;;;21.17;8.93;;;12.90;99.90;;;;;;5087707;28;20444;-68
2022/10/25 02:45:57;;;;;;;17.10;9.30;;;12.90;99.90;;;;;;5071311;28;20040;-69
2022/10/25 02:48:22;;;;;;;16.27;9.50;;;12.90;99.90;;;;;;5089139;28;20525;-70
2022/10/25 02:50:48;;;;;;;16.20;8.65;;;12.90;99.90;;;;;;5088042;28;20435;-69
2022/10/25 02:53:14;;;;;;;16.02;9.20;;;12.90;99.90;;;;;;5070434;28;20118;-71
2022/10/25 02:55:39;;;;;;;16.75;9.68;;;12.90;99.90;;;;;;5089163;28;20044;-68
2022/10/25 02:58:05;;;;;;;18.10;9.52;;;12.90;99.90;;;;;;5087882;28;20296;-70
2022/10/25 03:00:30;;;;;;;21.30;9.73;;;12.90;99.90;;;;;;5088322;28;20032;-70
2022/10/25 03:02:56;;;;;;;18.95;10.25;;;12.80;99.90;;;;;;5087785;28;20044;-70
2022/10/25 03:05:22;;;;;;;16.98;9.75;;;12.80;99.90;;;;;;5088659;28;20047;-70
2022/10/25 03:07:47;;;;;;;17.52;8.93;;;12.80;99.90;;;;;;5090203;28;20036;-70
2022/10/25 03:10:13;;;;;;;18.40;10.65;;;12.80;99.90;;;;;;5088099;28;20498;-69
2022/10/25 03:12:38;;;;;;;17.15;9.43;;;12.80;99.90;;;;;;5089664;28;20051;-68
2022/10/25 03:15:05;;;;;;;20.70;11.18;;;12.80;99.90;;;;;;5088235;28;20094;-70
2022/10/25 03:17:30;;;;;;;16.02;9.90;;;12.90;99.90;;;;;;5088670;28;20110;-69
2022/10/25 03:19:56;;;;;;;17.20;9.50;;;12.80;99.90;;;;;;5089643;28;20040;-69
2022/10/25 03:22:22;;;;;;;18.60;9.70;;;12.80;99.90;;;;;;5091413;28;20104;-69
2022/10/25 03:24:47;;;;;;;16.02;9.18;;;12.80;99.90;;;;;;5091873;28;20405;-70
2022/10/25 03:27:13;;;;;;;16.75;9.32;;;12.80;99.90;;;;;;5073874;28;20102;-69
2022/10/25 03:29:39;;;;;;;17.27;9.00;;;12.80;99.90;;;;;;5088315;28;20044;-69
2022/10/25 03:32:06;;;;;;;12.90;9.15;;;12.80;99.90;;;;;;5089314;28;20075;-68
2022/10/25 03:34:32;;;;;;;18.73;10.13;;;12.80;99.90;;;;;;5091716;28;20753;-69
2022/10/25 03:36:58;;;;;;;19.52;10.48;;;12.80;99.90;;;;;;5091822;28;20062;-69
2022/10/25 03:39:24;;;;;;;23.45;10.15;;;12.90;99.90;;;;;;5088306;28;20036;-67
2022/10/25 03:41:49;;;;;;;21.90;10.10;;;12.90;99.90;;;;;;5073223;28;20075;-69
2022/10/25 03:44:15;;;;;;;24.33;10.15;;;12.90;99.90;;;;;;5089470;28;20044;-68
2022/10/25 03:46:41;;;;;;;21.13;10.05;;;12.90;99.90;;;;;;5091520;28;20111;-69
2022/10/25 03:49:07;;;;;;;19.58;10.35;;;12.90;99.90;;;;;;5066987;28;20044;-69
2022/10/25 03:51:33;;;;;;;17.00;10.32;;;12.80;99.90;;;;;;5057628;28;20142;-68
2022/10/25 03:53:58;;;;;;;22.52;9.95;;;12.90;99.90;;;;;;5057594;28;20047;-68
2022/10/25 03:56:24;;;;;;;20.90;10.10;;;12.90;99.90;;;;;;5080242;28;20033;-68
2022/10/25 03:58:49;;;;;;;20.05;9.93;;;12.90;99.90;;;;;;5066089;28;20032;-68
2022/10/25 04:01:15;;;;;;;23.27;10.27;;;12.90;99.90;;;;;;5052474;28;20094;-69
2022/10/25 04:03:43;;;;;;;19.70;10.18;;;12.90;99.90;;;;;;5054079;28;20038;-68
2022/10/25 04:06:10;;;;;;;24.95;9.80;;;12.90;99.90;;;;;;5053633;28;20044;-69
2022/10/25 04:08:37;;;;;;;17.67;9.38;;;12.90;99.90;;;;;;5061115;28;20036;-69
2022/10/25 04:11:03;;;;;;;24.20;10.82;;;12.90;99.90;;;;;;5040828;28;20055;-68
2022/10/25 04:13:28;;;;;;;19.20;9.13;;;12.90;99.90;;;;;;5067930;28;20040;-69
2022/10/25 04:15:54;;;;;;;21.55;10.07;;;12.80;99.90;;;;;;5059259;28;20053;-68
2022/10/25 04:18:19;;;;;;;21.98;9.43;;;12.90;99.90;;;;;;5056518;28;20036;-70
2022/10/25 04:20:45;;;;;;;23.58;9.95;;;12.90;99.90;;;;;;5072734;28;20113;-69
2022/10/25 04:23:11;;;;;;;22.70;9.68;;;12.90;99.90;;;;;;5062886;28;20433;-70
2022/10/25 04:25:36;;;;;;;19.88;9.27;;;12.90;99.90;;;;;;5055112;28;20131;-67
2022/10/25 04:28:03;;;;;;;21.88;9.93;;;12.90;99.90;;;;;;5052294;28;20112;-69
2022/10/25 04:30:29;;;;;;;19.23;9.23;;;12.90;99.90;;;;;;5058792;28;20040;-69
2022/10/25 04:32:56;;;;;;;20.25;10.68;;;12.90;99.90;;;;;;5056860;28;20150;-70
2022/10/25 04:35:22;;;;;;;20.60;8.95;;;12.80;99.90;;;;;;5051430;28;20049;-68
2022/10/25 04:37:49;;;;;;;17.48;8.73;;;12.80;99.90;;;;;;5053770;28;20047;-69
2022/10/25 04:40:14;;;;;;;20.88;9.13;;;12.80;99.90;;;;;;5053835;28;20089;-69
2022/10/25 04:42:40;;;;;;;20.80;9.18;;;12.80;99.90;;;;;;5067808;28;20056;-67
2022/10/25 04:45:06;;;;;;;14.48;8.38;;;12.80;99.90;;;;;;5057755;28;20043;-69
2022/10/25 04:47:32;;;;;;;18.95;8.25;;;12.70;99.90;;;;;;5064110;28;20059;-70
2022/10/25 04:49:57;;;;;;;16.63;8.20;;;12.70;99.90;;;;;;5071991;28;20096;-70
2022/10/25 04:52:23;;;;;;;19.92;8.63;;;12.70;99.90;;;;;;5069629;28;20036;-69
2022/10/25 04:54:49;;;;;;;15.50;7.60;;;12.70;99.90;;;;;;5073443;28;20043;-68
2022/10/25 04:57:14;;;;;;;20.08;7.93;;;12.70;99.90;;;;;;5070902;28;20031;-68
2022/10/25 04:59:40;;;;;;;16.02;8.13;;;12.70;99.90;;;;;;5071994;28;20032;-68
2022/10/25 05:02:06;;;;;;;17.02;7.55;;;12.60;99.90;;;;;;5069906;28;20052;-67
2022/10/25 05:04:32;;;;;;;16.38;7.32;;;12.70;99.90;;;;;;5072197;28;20047;-69
2022/10/25 05:06:58;;;;;;;20.73;7.75;;;12.60;99.90;;;;;;5064293;28;20398;-68
2022/10/25 05:09:23;;;;;;;14.80;7.25;;;12.60;99.90;;;;;;5070743;28;20123;-68
2022/10/25 05:11:49;;;;;;;19.83;7.78;;;12.60;99.90;;;;;;5071461;28;20112;-69
2022/10/25 05:14:14;;;;;;;12.82;7.05;;;12.60;99.90;;;;;;5068171;28;20043;-71
2022/10/25 05:16:41;;;;;;;15.13;7.03;;;12.60;99.90;;;;;;5073220;28;20363;-70
2022/10/25 05:19:06;;;;;;;12.65;6.57;;;12.60;99.90;;;;;;5066284;28;20032;-70
2022/10/25 05:21:32;;;;;;;17.67;6.88;;;12.60;99.90;;;;;;5072439;28;20417;-70
2022/10/25 05:23:59;;;;;;;14.90;6.28;;;12.60;99.90;;;;;;5068999;28;20206;-69
2022/10/25 05:26:25;;;;;;;13.70;6.50;;;12.60;99.90;;;;;;5069591;28;20040;-68
2022/10/25 05:28:52;;;;;;;14.63;6.65;;;12.60;99.90;;;;;;5052412;28;20391;-69
2022/10/25 05:31:28;;;;;;;14.90;7.15;;;12.60;99.90;;;;;;5087298;28;20097;-70
2022/10/25 05:33:59;;;;;;;20.95;7.18;;;12.60;99.90;;;;;;5069711;28;20129;-68
2022/10/25 05:36:27;;;;;;;13.88;6.82;;;12.60;99.90;;;;;;5061958;28;20047;-69
2022/10/25 05:38:53;;;;;;;18.50;7.80;;;12.60;99.90;;;;;;5058636;28;20513;-69
2022/10/25 05:41:18;;;;;;;17.63;7.10;;;12.70;99.90;;;;;;5069872;28;20031;-71
2022/10/25 05:43:45;;;;;;;17.02;7.45;;;12.60;99.90;;;;;;5070276;28;20117;-69
2022/10/25 05:46:16;;;;;;;16.77;7.53;;;12.60;99.90;;;;;;5069579;28;20048;-70
2022/10/25 05:48:42;;;;;;;15.20;7.68;;;12.50;99.90;;;;;;5087344;28;20233;-70
2022/10/25 05:51:12;;;;;;;19.08;7.53;;;12.50;99.90;;;;;;5067468;28;20044;-72
2022/10/25 05:53:47;;;;;;;18.55;7.97;;;12.50;99.90;;;;;;5087451;28;20130;-70
2022/10/25 05:56:13;;;;;;;21.08;8.18;;;12.50;99.90;;;;;;5086108;28;20071;-68
2022/10/25 05:58:40;;;;;;;19.55;8.43;;;12.50;99.90;;;;;;5089059;28;20394;-69
2022/10/25 06:01:07;;;;;;;22.85;8.05;;;12.50;99.90;;;;;;5085883;28;20036;-70
2022/10/25 06:03:33;;;;;;;18.52;8.00;;;12.40;99.90;;;;;;5072243;28;20036;-69
2022/10/25 06:06:04;;;;;;;22.13;9.05;;;12.40;99.90;;;;;;5085768;28;20105;-69
2022/10/25 06:08:30;;;;;;;20.20;8.55;;;12.40;99.90;;;;;;5083165;28;20479;-70
2022/10/25 06:11:11;;;;;;;19.25;8.68;;;12.40;99.90;;;;;;5089423;28;20040;-71
2022/10/25 06:13:37;;;;;;;25.42;8.18;;;12.40;99.90;;;;;;5087315;28;20036;-69
2022/10/25 06:16:08;;;;;;;21.92;9.68;;;12.40;99.90;;;;;;5090460;28;20443;-68
2022/10/25 06:18:35;;;;;;;21.85;8.90;;;12.40;99.90;;;;;;5078869;28;20440;-68
2022/10/25 06:21:09;;;;;;;19.45;8.15;;;12.40;99.90;;;;;;5070914;28;20052;-69
2022/10/25 06:23:36;;;;;;;21.50;9.23;;;12.40;99.90;;;;;;5070464;28;20094;-67
2022/10/25 06:26:04;;;;;;;21.45;9.15;;;12.40;99.90;;;;;;5088455;28;20038;-68
2022/10/25 06:28:30;;;;;;;25.13;8.88;;;12.40;99.90;;;;;;5070889;28;20046;-69
2022/10/25 06:31:04;;;;;;;24.70;9.32;;;12.50;99.90;;;;;;5088472;28;20056;-69
2022/10/25 06:33:31;;;;;;;24.85;8.70;;;12.50;99.90;;;;;;5087735;28;20040;-70
2022/10/25 06:35:57;;;;;;;20.35;8.52;;;12.50;99.90;;;;;;5117911;28;20083;-70
2022/10/25 06:38:23;;;;;;;23.90;9.88;;;12.50;99.90;;;;;;5072010;28;20066;-69
2022/10/25 06:40:49;;;;;;;25.13;9.25;;;12.50;99.90;;;;;;5088114;28;20040;-68
2022/10/25 06:43:15;;;;;;;26.05;8.32;;;12.60;99.90;;;;;;5088886;28;20093;-70
2022/10/25 06:45:41;;;;;;;23.98;8.77;;;12.60;99.90;;;;;;5071200;28;20071;-68
2022/10/25 06:48:07;;;;;;;23.63;8.95;;;12.60;99.90;;;;;;5087079;28;20510;-68
2022/10/25 06:50:33;;;;;;;25.48;9.60;;;12.60;99.90;;;;;;5087812;28;20126;-68
2022/10/25 06:52:58;;;;;;;22.02;8.98;;;12.60;99.90;;;;;;5085219;28;20487;-69
2022/10/25 06:55:24;;;;;;;26.52;9.48;;;12.60;99.90;;;;;;5084455;28;20028;-70
2022/10/25 06:57:50;;;;;;;24.27;9.57;;;12.70;99.90;;;;;;5073600;28;20139;-68
2022/10/25 07:00:16;;;;;;;29.38;10.32;;;12.70;99.90;;;;;;5087056;28;20517;-70
2022/10/25 07:02:41;;;;;;;21.58;8.77;;;12.70;99.90;;;;;;5091305;28;20040;-67
2022/10/25 07:05:07;;;;;;;22.50;8.80;;;12.70;99.90;;;;;;5085319;28;20108;-68
2022/10/25 07:07:33;;;;;;;18.75;8.77;;;12.80;99.90;;;;;;5089285;28;20529;-70
2022/10/25 07:09:58;;;;;;;21.95;8.85;;;12.80;99.90;;;;;;5087297;28;20123;-69
2022/10/25 07:12:24;;;;;;;28.27;9.45;;;12.90;99.90;;;;;;5092155;28;20116;-69
2022/10/25 07:14:50;;;;;;;20.73;9.52;;;12.90;99.90;;;;;;5089152;28;20040;-68
2022/10/25 07:17:15;;;;;;;19.95;9.60;;;12.90;99.90;;;;;;5090605;28;20044;-71
2022/10/25 07:19:41;;;;;;;21.45;9.93;;;12.90;99.90;;;;;;5088333;28;20471;-68
2022/10/25 07:22:06;;;;;;;22.98;9.68;;;13.00;99.90;;;;;;5090311;28;20032;-69
2022/10/25 07:24:32;;;;;;;21.90;10.35;;;13.00;99.90;;;;;;5091197;28;20035;-68
2022/10/25 07:26:58;;;;;;;21.42;9.95;;;13.00;99.90;;;;;;5075114;28;20135;-67
2022/10/25 07:29:23;;;;;;;25.42;11.85;;;13.10;99.90;;;;;;5091580;28;20177;-68
2022/10/25 07:31:49;;;;;;;25.05;10.48;;;13.10;99.90;;;;;;5089458;28;20048;-67
2022/10/25 07:34:14;;;;;;;22.17;10.75;;;13.10;99.90;;;;;;5091694;28;20120;-68
2022/10/25 07:36:40;;;;;;;23.60;11.48;;;13.20;99.90;;;;;;5090853;28;20435;-68
2022/10/25 07:39:06;;;;;;;22.65;10.50;;;13.20;99.90;;;;;;5091852;28;20472;-68
2022/10/25 07:41:32;;;;;;;28.67;10.88;;;13.20;99.90;;;;;;5090276;28;20038;-68
2022/10/25 07:43:58;;;;;;;30.08;10.80;;;13.20;99.90;;;;;;5091525;28;20043;-68
2022/10/25 07:46:23;;;;;;;25.92;11.32;;;13.20;99.90;;;;;;5088148;28;20052;-68
2022/10/25 07:48:51;;;;;;;21.30;10.82;;;13.20;99.90;;;;;;5091184;28;20048;-68
2022/10/25 07:51:17;;;;;;;20.88;11.13;;;13.30;99.90;;;;;;5090864;28;20062;-69
2022/10/25 07:53:43;;;;;;;25.63;10.57;;;13.40;99.90;;;;;;5088110;28;20486;-68
2022/10/25 07:56:13;;;;;;;25.52;11.27;;;13.40;99.90;;;;;;5089434;28;20093;-68
2022/10/25 07:58:38;;;;;;;21.55;10.57;;;13.40;99.90;;;;;;5089367;28;20044;-68
2022/10/25 08:01:07;;;;;;;18.48;10.05;;;13.50;99.90;;;;;;5088203;28;20101;-68
2022/10/25 08:03:32;;;;;;;20.48;9.88;;;13.60;99.90;;;;;;5088762;28;20048;-67
2022/10/25 08:05:59;;;;;;;22.80;9.88;;;13.70;99.90;;;;;;5084432;28;20051;-69
2022/10/25 08:08:25;;;;;;;22.98;10.48;;;13.90;99.90;;;;;;5074021;28;20131;-68
2022/10/25 08:10:51;;;;;;;18.67;10.07;;;14.00;99.90;;;;;;5085639;28;20047;-68
2022/10/25 08:13:17;;;;;;;24.80;10.02;;;14.00;99.90;;;;;;5075954;28;20040;-68
2022/10/25 08:15:54;;;;;;;22.73;11.02;;;14.00;99.90;;;;;;5079727;28;20046;-69
2022/10/25 08:18:20;;;;;;;20.33;10.00;;;14.00;99.90;;;;;;5079962;28;20139;-67
2022/10/25 08:20:45;;;;;;;20.85;9.45;;;14.20;99.90;;;;;;5081974;28;20126;-69
2022/10/25 08:23:12;;;;;;;19.55;9.35;;;14.30;99.90;;;;;;5088833;28;20048;-69
2022/10/25 08:25:37;;;;;;;21.92;9.40;;;14.40;99.90;;;;;;5073487;28;20127;-68
2022/10/25 08:28:03;;;;;;;19.13;10.70;;;14.40;99.90;;;;;;5090009;28;20123;-68
2022/10/25 08:30:29;;;;;;;21.30;9.18;;;14.40;99.90;;;;;;5090261;28;20085;-68
2022/10/25 08:32:54;;;;;;;18.95;9.00;;;14.50;99.90;;;;;;5090097;28;20047;-69
2022/10/25 08:35:20;;;;;;;17.58;9.02;;;14.60;99.90;;;;;;5089236;28;20067;-68
2022/10/25 08:37:46;;;;;;;17.00;8.07;;;14.60;99.90;;;;;;5091090;28;20046;-68
2022/10/25 08:40:23;;;;;;;16.88;8.30;;;14.60;99.90;;;;;;5090924;28;20039;-68
2022/10/25 08:43:09;;;;;;;19.63;8.73;;;14.60;99.90;;;;;;5090991;28;20439;-68
2022/10/25 08:45:40;;;;;;;16.52;8.43;;;14.60;99.90;;;;;;5090850;28;20469;-68
2022/10/25 08:48:15;;;;;;;16.60;8.65;;;14.60;99.90;;;;;;5090895;28;20112;-68
2022/10/25 08:50:45;;;;;;;15.57;8.02;;;14.70;99.90;;;;;;5073531;28;20048;-68
2022/10/25 08:53:39;;;;;;;18.60;8.25;;;14.70;99.90;;;;;;5090695;28;20083;-68
2022/10/25 08:56:09;;;;;;;19.92;8.15;;;14.70;99.90;;;;;;5090772;28;20040;-69
2022/10/25 08:58:39;;;;;;;13.85;7.70;;;14.70;99.90;;;;;;5090503;28;20054;-68
2022/10/25 09:01:14;;;;;;;20.73;8.32;;;14.70;99.90;;;;;;5092083;28;20044;-68
2022/10/25 09:03:40;;;;;;;19.00;8.05;;;14.90;99.90;;;;;;5090694;28;20040;-68
2022/10/25 09:06:34;;;;;;;20.17;8.18;;;14.90;99.90;;;;;;5090652;28;20048;-68
2022/10/25 09:09:25;;;;;;;20.67;8.68;;;15.00;99.90;;;;;;5087191;28;20044;-68
2022/10/25 09:12:15;;;;;;;18.17;8.35;;;15.20;99.90;;;;;;5084494;28;20051;-68
2022/10/25 09:15:17;;;;;;;14.63;7.38;;;15.20;99.90;;;;;;5089445;28;20040;-69
2022/10/25 09:17:49;;;;;;;15.93;6.78;;;15.20;99.90;;;;;;5089462;28;20410;-69
2022/10/25 09:20:32;;;;;;;13.77;7.17;;;15.20;99.90;;;;;;5089670;28;20044;-68
2022/10/25 09:23:23;;;;;;;16.52;7.35;;;15.00;99.90;;;;;;5090292;28;20652;-68
2022/10/25 09:26:09;;;;;;;12.10;6.80;;;15.10;99.90;;;;;;5076243;28;20122;-69
2022/10/25 09:29:01;;;;;;;18.98;7.35;;;15.30;99.90;;;;;;5089012;28;20043;-67
2022/10/25 09:31:30;;;;;;;12.05;7.00;;;15.30;99.90;;;;;;5089697;28;20044;-69
2022/10/25 09:34:02;;;;;;;16.40;6.78;;;15.30;99.90;;;;;;5089803;28;20039;-68
2022/10/25 09:36:32;;;;;;;15.35;6.78;;;15.20;99.90;;;;;;5089763;28;20040;-68
2022/10/25 09:39:04;;;;;;;15.13;6.35;;;15.30;99.90;;;;;;5089684;28;20388;-69
2022/10/25 09:41:37;;;;;;;;;;;15.20;99.90;;;;;;5090109;28;20044;-69
2022/10/25 09:44:11;;;;;;;10.73;5.53;;;15.30;99.90;;;;;;5090117;28;20316;-68
2022/10/25 09:47:01;;;;;;;16.10;5.95;;;15.30;99.90;;;;;;5089215;28;20040;-68
2022/10/25 09:50:00;;;;;;;13.32;5.63;;;15.40;99.90;;;;;;5089393;28;20518;-69
2022/10/25 09:52:32;;;;;;;12.70;6.53;;;15.40;99.90;;;;;;5070683;28;20044;-67
2022/10/25 09:55:19;;;;;;;14.55;4.65;;;15.50;99.90;;;;;;5071144;28;20523;-67
2022/10/25 09:57:45;;;;;;;16.92;5.10;;;15.70;99.90;;;;;;5071774;28;20413;-68
2022/10/25 10:00:14;;;;;;;11.60;4.68;;;15.90;99.90;;;;;;5090029;28;20028;-69
2022/10/25 10:02:40;;;;;;;11.45;4.85;;;15.90;99.90;;;;;;5089430;28;20071;-68
2022/10/25 10:05:16;;;;;;;10.55;4.53;;;15.90;99.90;;;;;;5089793;28;20086;-69
2022/10/25 10:07:43;;;;;;;11.60;5.70;;;15.90;99.90;;;;;;5089584;28;20127;-69
2022/10/25 10:10:19;;;;;;;13.10;5.22;;;15.90;99.90;;;;;;5090823;28;20081;-68
2022/10/25 10:13:13;;;;;;;10.10;4.50;;;16.10;99.90;;;;;;5072433;28;20063;-68
2022/10/25 10:15:50;;;;;;;12.52;4.20;;;16.40;99.90;;;;;;5089401;28;20047;-70
2022/10/25 10:18:21;;;;;;;12.32;5.35;;;16.60;99.90;;;;;;5066886;28;20047;-68
2022/10/25 10:21:11;;;;;;;10.13;4.15;;;16.70;99.90;;;;;;5089346;28;20044;-68
2022/10/25 10:23:51;;;;;;;9.25;3.97;;;16.70;99.90;;;;;;5089453;28;20079;-68
2022/10/25 10:26:20;;;;;;;7.35;3.88;;;16.70;99.90;;;;;;5069227;28;20082;-68
2022/10/25 10:28:48;;;;;;;15.27;5.68;;;16.80;99.90;;;;;;5070874;28;20124;-69
2022/10/25 10:31:16;;;;;;;9.05;4.13;;;16.90;99.90;;;;;;5093585;28;20089;-68
2022/10/25 10:33:48;;;;;;;10.63;4.40;;;17.00;99.90;;;;;;5076035;28;20052;-70
2022/10/25 10:36:28;;;;;;;9.43;4.63;;;17.00;99.90;;;;;;5093512;28;20036;-70
2022/10/25 10:39:12;;;;;;;9.02;4.40;;;17.00;99.90;;;;;;5093502;28;20110;-69
2022/10/25 10:42:01;;;;;;;13.70;5.60;;;16.70;99.90;;;;;;5093715;28;20043;-68
2022/10/25 10:44:28;;;;;;;9.60;4.82;;;16.40;99.90;;;;;;5076702;28;20036;-69
2022/10/25 10:46:54;;;;;;;8.27;4.43;;;16.40;99.90;;;;;;5092825;28;20046;-69
2022/10/25 10:49:28;;;;;;;11.13;4.93;;;16.40;99.90;;;;;;5059032;28;20048;-68
2022/10/25 10:51:55;;;;;;;11.45;4.63;;;16.40;99.90;;;;;;5076302;28;20139;-69
2022/10/25 10:54:44;;;;;;;11.18;4.53;;;16.70;99.90;;;;;;5076066;28;20043;-68
2022/10/25 10:57:26;;;;;;;10.23;4.03;;;16.80;99.90;;;;;;5059552;28;20044;-69
2022/10/25 10:59:55;;;;;;;12.43;3.90;;;16.90;99.90;;;;;;5076242;28;20036;-69
2022/10/25 11:02:39;;;;;;;7.05;3.60;;;17.10;99.90;;;;;;5071815;28;20486;-68
2022/10/25 11:05:36;;;;;;;10.82;3.80;;;17.20;99.90;;;;;;5058861;28;20040;-68
2022/10/25 11:08:07;;;;;;;9.13;3.90;;;17.10;99.90;;;;;;5075220;28;20055;-68
2022/10/25 11:10:35;;;;;;;6.60;3.47;;;16.80;99.90;;;;;;5075886;28;20490;-69
2022/10/25 11:13:13;;;;;;;7.97;3.75;;;16.70;99.90;;;;;;5075239;28;20113;-68
2022/10/25 11:16:07;;;;;;;10.55;4.18;;;16.50;99.90;;;;;;5075747;28;20390;-69
2022/10/25 11:19:01;;;;;;;12.77;4.68;;;16.50;99.90;;;;;;5075597;28;20546;-68
2022/10/25 11:21:45;;;;;;;8.80;4.45;;;16.70;99.90;;;;;;5058225;28;20040;-68
2022/10/25 11:24:10;;;;;;;8.18;3.58;;;16.80;99.90;;;;;;5075234;28;20122;-68
2022/10/25 11:26:52;;;;;;;9.25;3.60;;;16.80;99.90;;;;;;5075447;28;20498;-69
2022/10/25 11:29:46;;;;;;;9.98;3.40;;;16.70;99.90;;;;;;5075401;28;20040;-69
2022/10/25 11:32:49;;;;;;;11.32;3.80;;;16.40;99.90;;;;;;5074874;28;20036;-68
2022/10/25 11:35:23;;;;;;;8.02;3.55;;;16.30;99.90;;;;;;5074830;28;20069;-68
2022/10/25 11:37:57;;;;;;;10.18;3.88;;;16.30;99.90;;;;;;5075090;28;20136;-68
2022/10/25 11:40:36;;;;;;;8.70;4.65;;;16.40;99.90;;;;;;5074131;28;20395;-68
2022/10/25 11:43:35;;;;;;;10.05;3.75;;;16.30;99.90;;;;;;5075292;28;20055;-69
2022/10/25 11:46:12;;;;;;;7.65;3.13;;;16.20;99.90;;;;;;5075041;28;20063;-68
2022/10/25 11:48:40;;;;;;;7.88;3.22;;;16.10;99.90;;;;;;5074976;28;20048;-68
2022/10/25 11:51:32;;;;;;;9.15;3.22;;;16.00;99.90;;;;;;5075182;28;20139;-69
2022/10/25 11:54:12;;;;;;;8.13;3.15;;;15.90;99.90;;;;;;5074951;28;20044;-69
2022/10/25 11:57:08;;;;;;;9.88;2.70;;;15.80;99.90;;;;;;5075221;28;20479;-69
2022/10/25 11:59:43;;;;;;;12.90;3.42;;;15.90;99.90;;;;;;5075055;28;20036;-69
2022/10/25 12:02:29;;;;;;;10.50;3.10;;;15.90;99.90;;;;;;5074810;28;20049;-69
2022/10/25 12:05:21;;;;;;;8.45;2.70;;;16.00;99.90;;;;;;5057985;28;20072;-69
2022/10/25 12:08:01;;;;;;;8.95;3.17;;;16.10;99.90;;;;;;5074866;28;20048;-68
2022/10/25 12:10:42;;;;;;;8.02;2.53;;;16.20;99.90;;;;;;5074993;28;20579;-69
2022/10/25 12:13:49;;;;;;;8.77;2.92;;;16.10;99.90;;;;;;5074368;28;20047;-68
2022/10/25 12:16:18;;;;;;;6.50;2.88;;;16.10;99.90;;;;;;4994133;28;20068;-69
2022/10/25 12:19:07;;;;;;;10.23;3.30;;;16.10;99.90;;;;;;4994193;28;20100;-68
2022/10/25 12:21:50;;;;;;;9.10;3.00;;;16.10;99.90;;;;;;4981733;28;20125;-69
2022/10/25 12:24:22;;;;;;;9.23;3.38;;;16.20;99.90;;;;;;4993861;28;20072;-68
2022/10/25 12:26:51;;;;;;;5.78;2.70;;;16.20;99.90;;;;;;4994420;28;20560;-69
2022/10/25 12:29:23;;;;;;;10.45;2.75;;;16.20;99.90;;;;;;4977888;28;20080;-69
2022/10/25 12:31:56;;;;;;;9.07;2.75;;;16.10;99.90;;;;;;4994111;28;20049;-67
2022/10/25 12:34:39;;;;;;;8.13;2.55;;;16.20;99.90;;;;;;4993690;28;20050;-69
2022/10/25 12:37:12;;;;;;;7.15;2.80;;;16.20;99.90;;;;;;4993867;28;20064;-68
2022/10/25 12:39:40;;;;;;;9.30;2.75;;;16.20;99.90;;;;;;4994180;28;20526;-69
2022/10/25 12:42:20;;;;;;;13.15;3.20;;;16.10;99.90;;;;;;4993948;28;20049;-69
2022/10/25 12:45:17;;;;;;;9.10;2.70;;;16.00;99.90;;;;;;4977077;28;20054;-69
2022/10/25 12:47:49;;;;;;;11.00;2.80;;;16.00;99.90;;;;;;4989754;28;20050;-69
2022/10/25 12:50:21;;;;;;;9.60;2.80;;;15.90;99.90;;;;;;5046886;28;20062;-68
2022/10/25 12:53:37;;;;;;;9.13;2.97;;;15.80;99.90;;;;;;5069948;28;20066;-69
2022/10/25 12:56:16;;;;;;;10.23;2.88;;;15.80;99.90;;;;;;4973521;28;20038;-69
2022/10/25 12:58:58;;;;;;;8.95;2.92;;;15.90;99.90;;;;;;4973695;28;20049;-69
2022/10/25 13:01:45;;;;;;;9.85;3.15;;;15.80;99.90;;;;;;4973243;28;20030;-69